createdAt,value
2023-04-17T00:02:01.942Z,5.60
2023-04-17T00:04:31.207Z,5.60
2023-04-17T00:07:03.610Z,8.13
2023-04-17T00:09:33.468Z,6.90
2023-04-17T00:12:02.635Z,5.50
2023-04-17T00:14:31.487Z,6.70
2023-04-17T00:17:00.382Z,5.93
2023-04-17T00:19:28.898Z,6.67
2023-04-17T00:21:57.599Z,5.23
2023-04-17T00:24:27.885Z,6.20
2023-04-17T00:26:56.553Z,6.00
2023-04-17T00:29:25.430Z,7.30
2023-04-17T00:31:53.970Z,6.00
2023-04-17T00:34:22.464Z,6.23
2023-04-17T00:36:51.245Z,5.93
2023-04-17T00:39:20.138Z,7.87
2023-04-17T00:41:50.086Z,7.93
2023-04-17T00:44:18.741Z,9.40
2023-04-17T00:46:47.570Z,8.80
2023-04-17T00:49:16.399Z,10.20
2023-04-17T00:51:45.305Z,8.00
2023-04-17T00:54:14.432Z,14.47
2023-04-17T00:56:45.765Z,6.27
2023-04-17T00:59:18.819Z,7.93
2023-04-17T01:01:47.614Z,5.50
2023-04-17T01:04:16.300Z,6.93
2023-04-17T01:06:45.278Z,7.67
2023-04-17T01:09:15.420Z,9.40
2023-04-17T01:11:46.601Z,9.43
2023-04-17T01:14:18.162Z,14.27
2023-04-17T01:16:46.807Z,11.70
2023-04-17T01:19:17.148Z,12.60
2023-04-17T01:21:46.218Z,13.77
2023-04-17T01:24:16.130Z,14.27
2023-04-17T01:26:44.856Z,9.70
2023-04-17T01:29:13.742Z,13.50
2023-04-17T01:31:42.571Z,13.00
2023-04-17T01:34:11.034Z,13.10
2023-04-17T01:36:39.971Z,11.13
2023-04-17T01:39:08.896Z,13.40
2023-04-17T01:41:39.865Z,13.77
2023-04-17T01:44:08.438Z,13.07
2023-04-17T01:46:37.427Z,12.23
2023-04-17T01:49:06.251Z,11.80
2023-04-17T01:51:35.100Z,13.30
2023-04-17T01:54:03.650Z,12.17
2023-04-17T01:56:32.316Z,13.03
2023-04-17T01:59:02.485Z,11.80
2023-04-17T02:01:33.094Z,8.23
2023-04-17T02:04:02.431Z,8.43
2023-04-17T02:06:35.265Z,9.50
2023-04-17T02:09:04.760Z,9.60
2023-04-17T02:11:33.415Z,10.43
2023-04-17T02:14:04.512Z,6.67
2023-04-17T02:16:33.255Z,5.20
2023-04-17T02:19:01.920Z,6.33
2023-04-17T02:21:31.342Z,6.20
2023-04-17T02:23:59.692Z,5.87
2023-04-17T02:26:27.879Z,5.40
2023-04-17T02:28:56.258Z,8.10
2023-04-17T02:31:26.563Z,4.80
2023-04-17T02:33:55.154Z,6.03
2023-04-17T02:36:23.540Z,5.20
2023-04-17T02:38:54.402Z,5.57
2023-04-17T02:41:22.892Z,7.93
2023-04-17T02:43:51.777Z,12.50
2023-04-17T02:46:20.584Z,8.40
2023-04-17T02:48:50.463Z,7.00
2023-04-17T02:51:19.005Z,7.13
2023-04-17T02:53:49.469Z,7.47
2023-04-17T02:56:18.390Z,6.83
2023-04-17T02:58:47.570Z,9.23
2023-04-17T03:01:16.256Z,9.27
2023-04-17T03:03:45.496Z,8.83
2023-04-17T03:06:16.043Z,9.30
2023-04-17T03:08:44.511Z,10.90
2023-04-17T03:11:13.190Z,9.80
2023-04-17T03:13:41.978Z,10.70
2023-04-17T03:16:10.774Z,9.97
2023-04-17T03:18:41.789Z,10.03
2023-04-17T03:21:10.457Z,11.27
2023-04-17T03:23:40.196Z,9.70
2023-04-17T03:26:08.797Z,9.00
2023-04-17T03:28:37.842Z,10.30
2023-04-17T03:31:06.750Z,9.47
2023-04-17T03:33:36.848Z,10.57
2023-04-17T03:36:05.834Z,10.67
2023-04-17T03:38:34.976Z,11.53
2023-04-17T03:41:05.006Z,14.67
2023-04-17T03:43:33.194Z,24.50
2023-04-17T03:46:01.940Z,34.20
2023-04-17T03:48:30.300Z,42.17
2023-04-17T03:50:59.007Z,25.50
2023-04-17T03:53:27.419Z,18.40
2023-04-17T03:55:56.026Z,14.37
2023-04-17T03:58:27.815Z,14.07
2023-04-17T04:00:59.279Z,12.37
2023-04-17T04:03:28.152Z,10.40
2023-04-17T04:05:57.333Z,12.63
2023-04-17T04:08:26.719Z,10.67
2023-04-17T04:10:55.509Z,10.10
2023-04-17T04:13:25.955Z,10.93
2023-04-17T04:15:54.359Z,11.40
2023-04-17T04:18:23.072Z,10.10
2023-04-17T04:20:51.969Z,10.37
2023-04-17T04:23:21.288Z,10.70
2023-04-17T04:25:50.940Z,11.40
2023-04-17T04:28:19.626Z,12.90
2023-04-17T04:30:50.833Z,12.07
2023-04-17T04:33:20.896Z,13.60
2023-04-17T04:35:51.446Z,12.43
2023-04-17T04:38:20.535Z,14.10
2023-04-17T04:40:50.300Z,11.73
2023-04-17T04:43:20.826Z,13.50
2023-04-17T04:45:52.390Z,12.03
2023-04-17T04:48:20.938Z,11.43
2023-04-17T04:50:49.762Z,13.20
2023-04-17T04:53:18.660Z,14.30
2023-04-17T04:55:47.627Z,17.30
2023-04-17T04:58:16.579Z,14.30
2023-04-17T05:00:45.416Z,12.90
2023-04-17T05:03:15.405Z,13.57
2023-04-17T05:05:45.190Z,10.17
2023-04-17T05:08:14.230Z,12.03
2023-04-17T05:10:42.932Z,9.57
2023-04-17T05:13:14.536Z,10.40
2023-04-17T05:15:43.495Z,7.97
2023-04-17T05:18:11.977Z,8.40
2023-04-17T05:20:44.255Z,8.00
2023-04-17T05:23:13.193Z,8.23
2023-04-17T05:25:42.650Z,8.77
2023-04-17T05:28:11.447Z,9.63
2023-04-17T05:30:40.216Z,8.37
2023-04-17T05:33:09.045Z,7.10
2023-04-17T05:35:41.630Z,9.10
2023-04-17T05:38:11.922Z,9.90
2023-04-17T05:40:40.835Z,8.80
2023-04-17T05:43:10.494Z,10.27
2023-04-17T05:45:41.644Z,12.47
2023-04-17T05:48:10.311Z,9.00
2023-04-17T05:50:39.001Z,8.87
2023-04-17T05:53:07.964Z,8.30
2023-04-17T05:55:37.958Z,8.20
2023-04-17T05:58:16.812Z,8.90
2023-04-17T06:00:52.022Z,7.37
2023-04-17T06:03:21.762Z,9.00
2023-04-17T06:05:50.786Z,8.80
2023-04-17T06:08:22.384Z,9.33
2023-04-17T06:10:54.452Z,9.07
2023-04-17T06:13:23.286Z,9.53
2023-04-17T06:15:52.641Z,11.80
2023-04-17T06:18:21.274Z,19.90
2023-04-17T06:20:49.804Z,12.30
2023-04-17T06:23:18.538Z,11.70
2023-04-17T06:25:47.200Z,16.93
2023-04-17T06:28:17.274Z,9.80
2023-04-17T06:30:45.921Z,8.00
2023-04-17T06:33:14.770Z,8.00
2023-04-17T06:35:44.976Z,7.10
2023-04-17T06:38:13.719Z,8.13
2023-04-17T06:40:42.375Z,7.40
2023-04-17T06:43:11.124Z,10.17
2023-04-17T06:45:43.316Z,9.20
2023-04-17T06:48:11.764Z,6.73
2023-04-17T06:50:40.422Z,6.60
2023-04-17T06:53:09.125Z,6.70
2023-04-17T06:55:37.854Z,7.70
2023-04-17T06:58:07.921Z,9.40
2023-04-17T07:00:36.796Z,9.77
2023-04-17T07:03:07.016Z,7.50
2023-04-17T07:05:35.918Z,9.43
2023-04-17T07:08:07.510Z,7.90
2023-04-17T07:10:36.134Z,8.30
2023-04-17T07:13:04.952Z,7.97
2023-04-17T07:15:33.586Z,8.50
2023-04-17T07:18:04.794Z,8.40
2023-04-17T07:20:34.420Z,7.93
2023-04-17T07:23:03.430Z,6.47
2023-04-17T07:25:31.962Z,7.80
2023-04-17T07:28:01.734Z,5.53
2023-04-17T07:30:34.273Z,7.67
2023-04-17T07:33:03.332Z,6.77
2023-04-17T07:35:32.227Z,7.27
2023-04-17T07:38:04.225Z,6.73
2023-04-17T07:40:33.564Z,10.50
2023-04-17T07:43:02.283Z,6.60
2023-04-17T07:45:31.005Z,8.40
2023-04-17T07:47:59.839Z,7.80
2023-04-17T07:50:28.606Z,7.93
2023-04-17T07:52:58.026Z,7.37
2023-04-17T07:55:31.322Z,10.20
2023-04-17T07:58:04.046Z,8.13
2023-04-17T08:00:35.816Z,8.10
2023-04-17T08:03:05.874Z,8.77
2023-04-17T08:05:34.897Z,8.70
2023-04-17T08:08:05.980Z,7.37
2023-04-17T08:10:38.331Z,6.37
2023-04-17T08:13:08.207Z,7.27
2023-04-17T08:15:40.997Z,9.23
2023-04-17T08:18:10.753Z,7.30
2023-04-17T08:20:43.161Z,9.47
2023-04-17T08:23:12.805Z,7.80
2023-04-17T08:25:42.985Z,8.63
2023-04-17T08:28:11.753Z,7.50
2023-04-17T08:30:40.850Z,8.47
2023-04-17T08:33:09.643Z,6.90
2023-04-17T08:35:41.132Z,7.20
2023-04-17T08:38:10.693Z,9.60
2023-04-17T08:40:42.300Z,8.23
2023-04-17T08:43:17.468Z,8.03
2023-04-17T08:45:54.736Z,8.13
2023-04-17T08:48:25.061Z,6.60
2023-04-17T08:50:54.929Z,8.43
2023-04-17T08:53:23.945Z,9.63
2023-04-17T08:55:53.238Z,11.50
2023-04-17T08:58:28.636Z,7.50
2023-04-17T09:01:09.034Z,7.37
2023-04-17T09:03:49.694Z,7.60
2023-04-17T09:06:18.595Z,7.57
2023-04-17T09:08:57.280Z,7.80
2023-04-17T09:11:28.706Z,7.47
2023-04-17T09:13:58.658Z,11.40
2023-04-17T09:16:28.643Z,13.00
2023-04-17T09:19:07.059Z,9.53
2023-04-17T09:21:39.581Z,9.10
2023-04-17T09:24:10.225Z,8.50
2023-04-17T09:26:38.736Z,7.60
2023-04-17T09:29:12.202Z,7.40
2023-04-17T09:31:45.448Z,8.17
2023-04-17T09:34:16.744Z,7.70
2023-04-17T09:36:48.109Z,6.60
2023-04-17T09:39:21.282Z,7.50
2023-04-17T09:41:49.774Z,8.73
2023-04-17T09:44:28.246Z,7.57
2023-04-17T09:46:57.493Z,6.83
2023-04-17T09:49:34.008Z,7.90
2023-04-17T09:52:02.818Z,8.57
2023-04-17T09:54:33.039Z,6.80
2023-04-17T09:57:03.957Z,7.43
2023-04-17T09:59:35.093Z,8.27
2023-04-17T10:02:05.859Z,6.70
2023-04-17T10:04:35.015Z,8.90
2023-04-17T10:07:06.898Z,8.90
2023-04-17T10:09:35.487Z,7.77
2023-04-17T10:12:05.163Z,7.03
2023-04-17T10:14:37.896Z,8.87
2023-04-17T10:17:24.136Z,7.80
2023-04-17T10:19:53.130Z,7.73
2023-04-17T10:22:31.609Z,5.17
2023-04-17T10:25:23.648Z,6.37
2023-04-17T10:27:53.699Z,5.80
2023-04-17T10:30:29.456Z,7.17
2023-04-17T10:33:28.252Z,6.77
2023-04-17T10:35:57.387Z,6.63
2023-04-17T10:38:37.067Z,14.33
2023-04-17T10:41:09.609Z,6.50
2023-04-17T10:43:43.012Z,5.47
2023-04-17T10:46:15.134Z,8.23
2023-04-17T10:48:49.909Z,6.50
2023-04-17T10:51:44.950Z,5.40
2023-04-17T10:54:15.849Z,8.60
2023-04-17T10:56:48.470Z,6.00
2023-04-17T10:59:23.723Z,9.00
2023-04-17T11:02:06.895Z,9.40
2023-04-17T11:04:36.042Z,5.70
2023-04-17T11:07:07.506Z,5.13
2023-04-17T11:09:36.499Z,6.13
2023-04-17T11:12:09.937Z,5.13
2023-04-17T11:14:42.899Z,5.13
2023-04-17T11:17:13.069Z,8.43
2023-04-17T11:19:41.666Z,8.77
2023-04-17T11:22:14.517Z,6.07
2023-04-17T11:24:43.724Z,5.43
2023-04-17T11:27:13.146Z,5.77
2023-04-17T11:29:41.818Z,6.30
2023-04-17T11:32:13.930Z,6.67
2023-04-17T11:34:43.551Z,12.13
2023-04-17T11:37:15.293Z,8.90
2023-04-17T11:39:44.708Z,6.17
2023-04-17T11:42:13.635Z,8.80
2023-04-17T11:44:44.567Z,6.43
2023-04-17T11:47:15.077Z,5.30
2023-04-17T11:49:44.226Z,7.10
2023-04-17T11:52:14.831Z,6.20
2023-04-17T11:54:44.536Z,5.53
2023-04-17T11:57:14.611Z,5.63
2023-04-17T11:59:45.895Z,6.07
2023-04-17T12:02:18.076Z,7.70
2023-04-17T12:04:47.339Z,4.97
2023-04-17T12:07:27.332Z,6.30
2023-04-17T12:09:58.897Z,6.20
2023-04-17T12:12:27.217Z,5.73
2023-04-17T12:14:55.935Z,5.70
2023-04-17T12:17:26.146Z,5.80
2023-04-17T12:19:55.108Z,8.63
2023-04-17T12:22:25.210Z,5.77
2023-04-17T12:24:58.852Z,5.53
2023-04-17T12:27:33.246Z,4.90
2023-04-17T12:30:01.979Z,8.03
2023-04-17T12:32:33.252Z,5.70
2023-04-17T12:35:02.126Z,5.80
2023-04-17T12:37:30.562Z,13.70
2023-04-17T12:39:59.669Z,8.07
2023-04-17T12:42:31.411Z,6.03
2023-04-17T12:45:03.602Z,6.20
2023-04-17T12:47:33.972Z,7.50
2023-04-17T12:50:02.855Z,7.10
2023-04-17T12:52:32.141Z,6.60
2023-04-17T12:55:01.407Z,9.43
2023-04-17T12:57:30.479Z,9.03
2023-04-17T12:59:59.246Z,7.73
2023-04-17T13:02:28.124Z,5.30
2023-04-17T13:04:58.242Z,6.10
2023-04-17T13:07:27.196Z,7.13
2023-04-17T13:09:55.795Z,5.43
2023-04-17T13:12:24.229Z,5.43
2023-04-17T13:14:53.425Z,5.77
2023-04-17T13:17:27.451Z,6.13
2023-04-17T13:19:57.572Z,6.30
2023-04-17T13:22:27.196Z,6.20
2023-04-17T13:24:57.293Z,6.73
2023-04-17T13:27:25.825Z,7.10
2023-04-17T13:29:54.402Z,7.17
2023-04-17T13:32:23.281Z,5.27
2023-04-17T13:34:55.487Z,5.80
2023-04-17T13:37:27.097Z,6.93
2023-04-17T13:39:55.452Z,8.90
2023-04-17T13:42:28.244Z,8.83
2023-04-17T13:44:57.190Z,6.83
2023-04-17T13:47:26.950Z,5.00
2023-04-17T13:49:56.720Z,5.90
2023-04-17T13:52:27.287Z,10.80
2023-04-17T13:54:59.843Z,5.50
2023-04-17T13:57:28.889Z,6.20
2023-04-17T14:00:00.390Z,8.43
2023-04-17T14:02:30.170Z,7.43
2023-04-17T14:04:59.085Z,7.67
2023-04-17T14:07:30.292Z,7.50
2023-04-17T14:09:59.313Z,7.80
2023-04-17T14:12:28.301Z,7.20
2023-04-17T14:14:58.228Z,5.80
2023-04-17T14:17:27.351Z,5.73
2023-04-17T14:19:55.851Z,5.57
2023-04-17T14:22:24.578Z,7.33
2023-04-17T14:24:54.852Z,4.43
2023-04-17T14:27:26.070Z,5.30
2023-04-17T14:29:58.857Z,4.33
2023-04-17T14:32:29.511Z,6.73
2023-04-17T14:34:58.298Z,8.80
2023-04-17T14:37:27.134Z,5.60
2023-04-17T14:39:57.357Z,5.03
2023-04-17T14:42:26.772Z,6.00
2023-04-17T14:44:55.359Z,4.47
2023-04-17T14:47:28.728Z,6.60
2023-04-17T14:50:01.333Z,4.47
2023-04-17T14:52:30.104Z,7.47
2023-04-17T14:55:00.486Z,5.23
2023-04-17T14:57:29.248Z,5.83
2023-04-17T14:59:57.868Z,5.07
2023-04-17T15:02:27.240Z,9.00
2023-04-17T15:04:56.822Z,5.60
2023-04-17T15:07:25.584Z,6.03
2023-04-17T15:09:56.311Z,13.70
2023-04-17T15:12:26.665Z,5.30
2023-04-17T15:14:56.703Z,8.13
2023-04-17T15:17:25.605Z,4.57
2023-04-17T15:19:57.568Z,6.53
2023-04-17T15:22:27.133Z,8.13
2023-04-17T15:24:56.064Z,5.83
2023-04-17T15:27:26.083Z,7.17
2023-04-17T15:29:55.445Z,7.50
2023-04-17T15:32:24.682Z,8.37
2023-04-17T15:34:53.376Z,10.57
2023-04-17T15:37:22.053Z,6.87
2023-04-17T15:39:51.396Z,7.53
2023-04-17T15:42:20.557Z,5.40
2023-04-17T15:44:53.427Z,6.17
2023-04-17T15:47:22.599Z,8.47
2023-04-17T15:49:51.639Z,9.17
2023-04-17T15:52:20.382Z,8.17
2023-04-17T15:54:49.355Z,7.47
2023-04-17T15:57:17.980Z,6.50
2023-04-17T15:59:46.694Z,10.33
2023-04-17T16:02:17.030Z,4.57
2023-04-17T16:04:45.554Z,11.47
2023-04-17T16:07:14.525Z,10.03
2023-04-17T16:09:44.632Z,10.80
2023-04-17T16:12:14.169Z,33.00
2023-04-17T16:14:46.858Z,9.53
2023-04-17T16:17:17.924Z,10.30
2023-04-17T16:19:49.611Z,6.97
2023-04-17T16:22:19.591Z,4.50
2023-04-17T16:24:47.969Z,5.90
2023-04-17T16:27:16.452Z,8.23
2023-04-17T16:29:45.953Z,4.43
2023-04-17T16:32:15.699Z,5.10
2023-04-17T16:34:49.039Z,5.03
2023-04-17T16:37:18.179Z,5.13
2023-04-17T16:39:47.529Z,4.03
2023-04-17T16:42:18.092Z,4.70
2023-04-17T16:44:47.364Z,4.73
2023-04-17T16:47:16.765Z,4.30
2023-04-17T16:49:45.747Z,5.20
2023-04-17T16:52:15.671Z,3.77
2023-04-17T16:54:47.028Z,4.30
2023-04-17T16:57:19.816Z,5.53
2023-04-17T16:59:50.921Z,7.17
2023-04-17T17:02:22.226Z,6.57
2023-04-17T17:04:50.795Z,7.57
2023-04-17T17:07:21.438Z,6.10
2023-04-17T17:09:50.246Z,5.60
2023-04-17T17:12:19.381Z,5.00
2023-04-17T17:14:50.853Z,5.77
2023-04-17T17:17:19.281Z,4.40
2023-04-17T17:19:47.985Z,6.10
2023-04-17T17:22:17.414Z,5.40
2023-04-17T17:24:47.625Z,5.67
2023-04-17T17:27:18.265Z,6.07
2023-04-17T17:29:47.278Z,6.30
2023-04-17T17:32:19.266Z,7.33
2023-04-17T17:34:48.090Z,5.77
2023-04-17T17:37:16.388Z,6.10
2023-04-17T17:39:48.521Z,5.87
2023-04-17T17:42:17.427Z,5.77
2023-04-17T17:44:46.711Z,6.23
2023-04-17T17:47:15.200Z,5.80
2023-04-17T17:49:44.340Z,5.13
2023-04-17T17:52:12.915Z,5.37
2023-04-17T17:54:51.924Z,4.90
2023-04-17T17:57:20.868Z,5.47
2023-04-17T17:59:49.563Z,5.33
2023-04-17T18:02:18.223Z,5.00
2023-04-17T18:04:49.377Z,5.53
2023-04-17T18:07:18.072Z,4.27
2023-04-17T18:09:50.178Z,5.93
2023-04-17T18:12:20.770Z,5.23
2023-04-17T18:14:50.012Z,5.13
2023-04-17T18:17:18.834Z,6.93
2023-04-17T18:19:47.635Z,6.50
2023-04-17T18:22:16.573Z,5.90
2023-04-17T18:24:45.722Z,9.33
2023-04-17T18:27:17.818Z,5.17
2023-04-17T18:29:48.553Z,7.50
2023-04-17T18:32:17.328Z,5.83
2023-04-17T18:34:49.407Z,4.93
2023-04-17T18:37:20.503Z,4.83
2023-04-17T18:39:49.178Z,6.70
2023-04-17T18:42:17.951Z,9.10
2023-04-17T18:44:48.989Z,10.07
2023-04-17T18:47:17.481Z,6.30
2023-04-17T18:49:51.155Z,6.80
2023-04-17T18:52:19.738Z,6.67
2023-04-17T18:54:48.473Z,5.57
2023-04-17T18:57:19.134Z,5.90
2023-04-17T18:59:49.733Z,5.53
2023-04-17T19:02:18.741Z,7.20
2023-04-17T19:04:47.363Z,5.33
2023-04-17T19:07:18.244Z,9.57
2023-04-17T19:09:49.127Z,6.73
2023-04-17T19:12:18.313Z,5.97
2023-04-17T19:14:48.533Z,7.27
2023-04-17T19:17:17.534Z,5.17
2023-04-17T19:19:45.999Z,5.50
2023-04-17T19:22:16.099Z,5.70
2023-04-17T19:24:50.150Z,6.30
2023-04-17T19:27:18.889Z,15.47
2023-04-17T19:29:49.387Z,5.93
2023-04-17T19:32:19.054Z,7.50
2023-04-17T19:34:47.669Z,5.87
2023-04-17T19:37:16.482Z,6.10
2023-04-17T19:39:44.921Z,6.50
2023-04-17T19:42:13.821Z,7.57
2023-04-17T19:44:43.506Z,7.13
2023-04-17T19:47:15.919Z,6.33
2023-04-17T19:49:45.076Z,9.30
2023-04-17T19:52:16.580Z,6.60
2023-04-17T19:54:51.276Z,6.00
2023-04-17T19:57:19.955Z,7.30
2023-04-17T19:59:54.821Z,7.00
2023-04-17T20:02:25.067Z,7.13
2023-04-17T20:04:53.668Z,8.03
2023-04-17T20:07:22.303Z,6.20
2023-04-17T20:09:51.160Z,8.00
2023-04-17T20:12:22.153Z,6.97
2023-04-17T20:14:52.767Z,8.73
2023-04-17T20:17:24.459Z,10.40
2023-04-17T20:19:54.536Z,8.07
2023-04-17T20:22:23.109Z,6.20
2023-04-17T20:24:51.709Z,7.70
2023-04-17T20:27:23.360Z,7.80
2023-04-17T20:29:52.441Z,8.67
2023-04-17T20:32:21.757Z,6.83
2023-04-17T20:34:50.762Z,6.93
2023-04-17T20:37:22.480Z,8.00
2023-04-17T20:39:52.674Z,12.07
2023-04-17T20:42:22.512Z,11.30
2023-04-17T20:44:51.814Z,8.00
2023-04-17T20:47:20.817Z,9.83
2023-04-17T20:49:51.143Z,8.23
2023-04-17T20:52:21.049Z,7.80
2023-04-17T20:54:52.408Z,7.83
2023-04-17T20:57:22.993Z,7.47
2023-04-17T20:59:55.864Z,8.83
2023-04-17T21:02:26.719Z,10.03
2023-04-17T21:04:55.452Z,9.57
2023-04-17T21:07:25.852Z,8.30
2023-04-17T21:09:57.483Z,9.17
2023-04-17T21:12:26.222Z,11.50
2023-04-17T21:14:55.006Z,9.00
2023-04-17T21:17:23.839Z,8.93
2023-04-17T21:19:52.846Z,16.13
2023-04-17T21:22:21.768Z,8.40
2023-04-17T21:24:52.186Z,8.40
2023-04-17T21:27:21.144Z,9.63
2023-04-17T21:29:50.268Z,9.10
2023-04-17T21:32:19.265Z,9.47
2023-04-17T21:34:47.715Z,9.00
2023-04-17T21:37:18.374Z,12.00
2023-04-17T21:39:48.792Z,13.87
2023-04-17T21:42:21.431Z,10.40
2023-04-17T21:44:50.167Z,13.30
2023-04-17T21:47:20.018Z,19.63
2023-04-17T21:49:49.004Z,11.77
2023-04-17T21:52:18.217Z,11.97
2023-04-17T21:54:47.571Z,10.47
2023-04-17T21:57:23.809Z,13.50
2023-04-17T21:59:54.094Z,12.70
2023-04-17T22:02:25.321Z,13.57
2023-04-17T22:04:54.252Z,13.03
2023-04-17T22:07:23.288Z,14.37
2023-04-17T22:09:52.310Z,12.80
2023-04-17T22:12:21.215Z,12.13
2023-04-17T22:14:50.322Z,16.10
2023-04-17T22:17:20.682Z,12.40
2023-04-17T22:19:49.106Z,14.23
2023-04-17T22:22:17.766Z,13.73
2023-04-17T22:24:46.596Z,15.50
2023-04-17T22:27:15.272Z,14.23
2023-04-17T22:29:44.153Z,16.57
2023-04-17T22:32:12.804Z,12.23
2023-04-17T22:34:43.024Z,12.37
2023-04-17T22:37:11.329Z,15.73
2023-04-17T22:39:40.076Z,18.30
2023-04-17T22:42:11.352Z,14.87
2023-04-17T22:44:40.448Z,16.10
2023-04-17T22:47:09.285Z,12.60
2023-04-17T22:49:38.244Z,13.63
2023-04-17T22:52:08.363Z,14.97
2023-04-17T22:54:37.050Z,14.97
2023-04-17T22:57:06.007Z,16.70
2023-04-17T22:59:35.062Z,15.63
2023-04-17T23:02:04.666Z,18.27
2023-04-17T23:04:33.328Z,13.13
2023-04-17T23:07:03.247Z,16.20
2023-04-17T23:09:33.452Z,16.30
2023-04-17T23:12:03.666Z,17.20
2023-04-17T23:14:32.731Z,19.77
2023-04-17T23:17:01.866Z,20.67
2023-04-17T23:19:30.589Z,16.80
2023-04-17T23:22:01.306Z,16.40
2023-04-17T23:24:33.696Z,17.77
2023-04-17T23:27:03.890Z,15.20
2023-04-17T23:29:32.775Z,18.97
2023-04-17T23:32:01.815Z,16.17
2023-04-17T23:34:33.439Z,16.13
2023-04-17T23:37:02.841Z,15.90
2023-04-17T23:39:31.727Z,16.17
2023-04-17T23:42:00.774Z,16.20
2023-04-17T23:44:30.991Z,17.00
2023-04-17T23:47:00.208Z,18.90
2023-04-17T23:49:29.254Z,19.23
2023-04-17T23:51:57.896Z,17.70
2023-04-17T23:54:28.941Z,17.93
2023-04-17T23:56:58.476Z,17.43
2023-04-17T23:59:29.787Z,17.47
